createdAt,value
2023-03-22T00:02:13.992Z,9.00
2023-03-22T00:04:42.900Z,9.00
2023-03-22T00:07:09.640Z,8.90
2023-03-22T00:09:36.637Z,9.00
2023-03-22T00:12:03.862Z,9.00
2023-03-22T00:14:30.711Z,9.00
2023-03-22T00:16:57.453Z,9.00
2023-03-22T00:19:24.191Z,9.10
2023-03-22T00:21:51.565Z,9.10
2023-03-22T00:24:18.615Z,9.10
2023-03-22T00:26:47.454Z,9.10
2023-03-22T00:29:14.219Z,9.20
2023-03-22T00:31:41.305Z,9.20
2023-03-22T00:34:08.237Z,9.20
2023-03-22T00:36:37.875Z,9.20
2023-03-22T00:39:04.754Z,9.20
2023-03-22T00:41:31.643Z,9.20
2023-03-22T00:43:58.591Z,9.10
2023-03-22T00:46:26.065Z,9.00
2023-03-22T00:48:52.916Z,9.00
2023-03-22T00:51:19.860Z,8.90
2023-03-22T00:53:49.988Z,8.80
2023-03-22T00:56:16.864Z,8.90
2023-03-22T00:58:43.798Z,8.90
2023-03-22T01:01:13.946Z,9.10
2023-03-22T01:03:42.733Z,9.20
2023-03-22T01:06:10.200Z,9.10
2023-03-22T01:08:38.884Z,9.10
2023-03-22T01:11:07.147Z,9.20
2023-03-22T01:13:34.273Z,9.10
2023-03-22T01:16:01.030Z,9.10
2023-03-22T01:18:27.790Z,9.10
2023-03-22T01:20:54.724Z,9.20
2023-03-22T01:23:21.528Z,9.10
2023-03-22T01:25:48.308Z,9.10
2023-03-22T01:28:15.039Z,9.00
2023-03-22T01:30:42.617Z,9.00
2023-03-22T01:33:09.592Z,9.00
2023-03-22T01:35:37.088Z,9.00
2023-03-22T01:38:04.437Z,9.00
2023-03-22T01:40:31.247Z,9.00
2023-03-22T01:42:57.972Z,9.00
2023-03-22T01:45:35.884Z,9.00
2023-03-22T01:48:08.244Z,9.00
2023-03-22T01:50:37.545Z,8.90
2023-03-22T01:53:06.740Z,8.90
2023-03-22T01:55:34.140Z,9.00
2023-03-22T01:58:01.635Z,9.00
2023-03-22T02:00:29.152Z,9.10
2023-03-22T02:02:56.080Z,9.00
2023-03-22T02:05:22.965Z,9.00
2023-03-22T02:07:50.406Z,9.00
2023-03-22T02:10:25.665Z,9.00
2023-03-22T02:13:21.744Z,9.00
2023-03-22T02:16:07.401Z,9.00
2023-03-22T02:18:40.815Z,8.90
2023-03-22T02:21:18.058Z,8.90
2023-03-22T02:23:47.766Z,8.90
2023-03-22T02:26:52.079Z,8.80
2023-03-22T02:29:30.057Z,8.80
2023-03-22T02:32:18.021Z,8.90
2023-03-22T02:35:08.076Z,8.90
2023-03-22T02:37:47.183Z,8.80
2023-03-22T02:40:25.855Z,8.80
2023-03-22T02:43:21.727Z,8.80
2023-03-22T02:45:55.555Z,8.80
2023-03-22T02:48:44.583Z,8.70
2023-03-22T02:51:21.305Z,8.70
2023-03-22T02:54:09.179Z,8.80
2023-03-22T02:56:49.739Z,8.70
2023-03-22T02:59:19.829Z,8.70
2023-03-22T03:01:50.820Z,8.80
2023-03-22T03:04:21.941Z,8.70
2023-03-22T03:06:51.797Z,8.70
2023-03-22T03:09:20.787Z,8.80
2023-03-22T03:11:53.290Z,8.70
2023-03-22T03:14:31.810Z,8.70
2023-03-22T03:17:20.341Z,8.80
2023-03-22T03:20:18.617Z,8.80
2023-03-22T03:22:51.134Z,8.70
2023-03-22T03:25:44.769Z,8.70
2023-03-22T03:28:30.472Z,8.70
2023-03-22T03:31:07.957Z,8.70
2023-03-22T03:33:37.676Z,8.60
2023-03-22T03:36:11.267Z,8.50
2023-03-22T03:38:46.358Z,8.50
2023-03-22T03:41:17.270Z,8.40
2023-03-22T03:43:46.750Z,8.30
2023-03-22T03:46:14.115Z,8.30
2023-03-22T03:48:44.385Z,8.20
2023-03-22T03:51:11.119Z,8.20
2023-03-22T03:53:37.853Z,8.10
2023-03-22T03:56:05.144Z,8.00
2023-03-22T03:58:31.900Z,8.00
2023-03-22T04:00:58.749Z,7.90
2023-03-22T04:03:25.808Z,7.90
2023-03-22T04:05:52.856Z,7.80
2023-03-22T04:08:19.597Z,7.70
2023-03-22T04:10:51.861Z,7.70
2023-03-22T04:13:21.543Z,7.70
2023-03-22T04:15:53.107Z,7.60
2023-03-22T04:18:21.341Z,7.60
2023-03-22T04:20:49.477Z,7.70
2023-03-22T04:23:16.459Z,7.70
2023-03-22T04:25:43.692Z,7.70
2023-03-22T04:28:10.835Z,7.70
2023-03-22T04:30:38.727Z,7.70
2023-03-22T04:33:06.955Z,7.70
2023-03-22T04:35:34.913Z,7.60
2023-03-22T04:38:01.652Z,7.50
2023-03-22T04:40:35.147Z,7.50
2023-03-22T04:43:04.097Z,7.50
2023-03-22T04:45:32.479Z,7.50
2023-03-22T04:47:59.810Z,7.40
2023-03-22T04:50:28.242Z,7.40
2023-03-22T04:52:55.119Z,7.40
2023-03-22T04:55:21.961Z,7.30
2023-03-22T04:57:48.824Z,7.30
2023-03-22T05:00:17.233Z,7.20
2023-03-22T05:02:43.960Z,7.20
2023-03-22T05:05:10.874Z,7.20
2023-03-22T05:07:39.263Z,7.10
2023-03-22T05:10:07.186Z,7.10
2023-03-22T05:12:33.995Z,7.10
2023-03-22T05:15:03.643Z,7.10
2023-03-22T05:17:30.393Z,7.10
2023-03-22T05:19:57.182Z,7.10
2023-03-22T05:22:23.989Z,7.10
2023-03-22T05:24:51.282Z,7.10
2023-03-22T05:27:18.017Z,7.20
2023-03-22T05:29:46.730Z,7.20
2023-03-22T05:32:13.502Z,7.30
2023-03-22T05:34:42.790Z,7.40
2023-03-22T05:37:10.177Z,7.50
2023-03-22T05:39:36.992Z,7.60
2023-03-22T05:42:04.143Z,7.70
2023-03-22T05:44:30.882Z,7.80
2023-03-22T05:46:57.699Z,7.90
2023-03-22T05:49:26.703Z,8.10
2023-03-22T05:51:53.644Z,8.20
2023-03-22T05:54:20.354Z,8.30
2023-03-22T05:56:47.330Z,8.80
2023-03-22T05:59:14.116Z,9.00
2023-03-22T06:01:41.014Z,9.30
2023-03-22T06:04:07.766Z,9.40
2023-03-22T06:06:34.542Z,9.50
2023-03-22T06:09:15.981Z,9.60
2023-03-22T06:11:43.463Z,9.90
2023-03-22T06:14:10.256Z,11.50
2023-03-22T06:16:37.023Z,13.20
2023-03-22T06:19:03.867Z,13.20
2023-03-22T06:21:30.587Z,13.00
2023-03-22T06:23:57.414Z,12.70
2023-03-22T06:26:24.140Z,13.10
2023-03-22T06:28:50.957Z,14.30
2023-03-22T06:31:17.797Z,15.10
2023-03-22T06:33:47.253Z,15.30
2023-03-22T06:36:14.195Z,15.80
2023-03-22T06:38:40.932Z,16.00
2023-03-22T06:41:07.734Z,17.00
2023-03-22T06:43:34.558Z,17.00
2023-03-22T06:46:01.449Z,17.20
2023-03-22T06:48:28.272Z,17.50
2023-03-22T06:50:55.180Z,17.40
2023-03-22T06:53:21.907Z,18.40
2023-03-22T06:55:48.876Z,19.00
2023-03-22T06:58:15.575Z,19.00
2023-03-22T07:00:42.466Z,19.20
2023-03-22T07:03:09.496Z,19.40
2023-03-22T07:05:36.391Z,19.40
2023-03-22T07:08:03.332Z,20.60
2023-03-22T07:10:30.492Z,20.30
2023-03-22T07:12:58.046Z,19.00
2023-03-22T07:15:24.883Z,19.20
2023-03-22T07:17:52.243Z,20.40
2023-03-22T07:20:19.951Z,20.70
2023-03-22T07:22:50.832Z,21.10
2023-03-22T07:25:17.655Z,20.40
2023-03-22T07:27:44.511Z,19.80
2023-03-22T07:30:11.999Z,19.50
2023-03-22T07:32:41.974Z,19.50
2023-03-22T07:35:09.072Z,19.60
2023-03-22T07:37:35.832Z,20.00
2023-03-22T07:40:04.261Z,19.80
2023-03-22T07:42:31.779Z,20.10
2023-03-22T07:44:58.573Z,20.80
2023-03-22T07:47:39.848Z,21.30
2023-03-22T07:50:09.485Z,21.70
2023-03-22T07:52:36.782Z,21.70
2023-03-22T07:55:03.845Z,21.20
2023-03-22T07:57:30.584Z,21.60
2023-03-22T07:59:57.472Z,20.90
2023-03-22T08:02:24.463Z,21.30
2023-03-22T08:04:55.104Z,21.00
2023-03-22T08:07:25.048Z,21.00
2023-03-22T08:09:52.053Z,21.70
2023-03-22T08:12:19.047Z,22.40
2023-03-22T08:14:51.065Z,22.30
2023-03-22T08:17:18.859Z,22.90
2023-03-22T08:19:46.397Z,23.60
2023-03-22T08:22:15.440Z,23.90
2023-03-22T08:24:42.275Z,24.60
2023-03-22T08:27:09.167Z,23.00
2023-03-22T08:29:37.292Z,23.10
2023-03-22T08:32:04.442Z,24.40
2023-03-22T08:34:34.392Z,24.20
2023-03-22T08:37:03.619Z,23.10
2023-03-22T08:39:30.467Z,23.50
2023-03-22T08:41:57.305Z,24.30
2023-03-22T08:44:24.165Z,23.80
2023-03-22T08:46:50.856Z,23.70
2023-03-22T08:49:17.641Z,23.40
2023-03-22T08:51:44.674Z,23.60
2023-03-22T08:54:11.850Z,24.40
2023-03-22T08:56:38.570Z,25.60
2023-03-22T08:59:06.699Z,26.30
2023-03-22T09:01:34.162Z,26.30
2023-03-22T09:04:01.017Z,25.10
2023-03-22T09:06:28.347Z,25.30
2023-03-22T09:08:56.185Z,25.10
2023-03-22T09:11:23.954Z,26.30
2023-03-22T09:13:51.475Z,26.60
2023-03-22T09:16:18.900Z,25.90
2023-03-22T09:18:46.044Z,25.90
2023-03-22T09:21:13.065Z,26.20
2023-03-22T09:23:40.263Z,26.20
2023-03-22T09:26:09.144Z,27.10
2023-03-22T09:28:37.062Z,25.30
2023-03-22T09:31:10.018Z,25.90
2023-03-22T09:33:38.023Z,25.40
2023-03-22T09:36:05.577Z,26.60
2023-03-22T09:38:33.787Z,26.40
2023-03-22T09:41:07.160Z,26.10
2023-03-22T09:43:38.001Z,27.20
2023-03-22T09:46:10.666Z,26.60
2023-03-22T09:48:39.348Z,26.90
2023-03-22T09:51:23.377Z,27.00
2023-03-22T09:53:50.377Z,27.30
2023-03-22T09:56:26.119Z,26.90
2023-03-22T09:58:54.434Z,27.10
2023-03-22T10:01:41.402Z,27.00
2023-03-22T10:04:43.203Z,25.50
2023-03-22T10:08:07.749Z,25.80
2023-03-22T10:10:34.754Z,26.70
2023-03-22T10:13:07.748Z,26.20
2023-03-22T10:15:43.317Z,25.70
2023-03-22T10:18:18.093Z,26.20
2023-03-22T10:21:04.630Z,25.10
2023-03-22T10:23:39.026Z,25.00
2023-03-22T10:26:08.857Z,22.70
2023-03-22T10:28:41.246Z,24.30
2023-03-22T10:31:15.634Z,24.80
2023-03-22T10:33:50.539Z,25.80
2023-03-22T10:36:20.910Z,25.30
2023-03-22T10:38:55.392Z,24.00
2023-03-22T10:41:25.434Z,25.60
2023-03-22T10:44:18.082Z,26.50
2023-03-22T10:46:46.439Z,26.10
2023-03-22T10:49:31.636Z,26.70
2023-03-22T10:52:21.209Z,26.50
2023-03-22T10:54:48.137Z,27.50
2023-03-22T10:57:14.973Z,26.60
2023-03-22T10:59:47.440Z,26.80
2023-03-22T11:02:28.036Z,26.90
2023-03-22T11:05:01.219Z,26.00
2023-03-22T11:07:44.434Z,26.40
2023-03-22T11:10:21.776Z,26.00
2023-03-22T11:12:53.865Z,26.30
2023-03-22T11:15:20.857Z,26.40
2023-03-22T11:17:48.185Z,25.10
2023-03-22T11:20:17.827Z,25.90
2023-03-22T11:22:47.220Z,26.60
2023-03-22T11:25:22.372Z,26.20
2023-03-22T11:28:05.898Z,26.70
2023-03-22T11:30:34.665Z,26.90
2023-03-22T11:33:21.971Z,26.40
2023-03-22T11:35:58.749Z,26.40
2023-03-22T11:38:31.502Z,24.90
2023-03-22T11:41:04.736Z,24.50
2023-03-22T11:43:33.140Z,24.90
2023-03-22T11:46:00.967Z,25.20
2023-03-22T11:48:31.701Z,25.60
2023-03-22T11:51:11.241Z,26.10
2023-03-22T11:53:42.798Z,26.90
2023-03-22T11:56:12.539Z,27.30
2023-03-22T11:58:42.268Z,26.20
2023-03-22T12:01:17.362Z,26.50
2023-03-22T12:03:49.569Z,24.90
2023-03-22T12:06:24.629Z,25.90
2023-03-22T12:08:55.326Z,26.20
2023-03-22T12:11:32.868Z,25.70
2023-03-22T12:14:05.115Z,25.80
2023-03-22T12:16:55.058Z,26.50
2023-03-22T12:19:40.597Z,25.20
2023-03-22T12:22:20.080Z,25.70
2023-03-22T12:24:46.949Z,25.90
2023-03-22T12:27:30.724Z,24.70
2023-03-22T12:30:00.285Z,25.60
2023-03-22T12:32:42.029Z,25.10
2023-03-22T12:35:18.319Z,24.80
2023-03-22T12:37:49.885Z,25.00
2023-03-22T12:40:32.116Z,24.70
2023-03-22T12:43:08.113Z,26.00
2023-03-22T12:45:41.333Z,25.60
2023-03-22T12:48:11.205Z,25.90
2023-03-22T12:51:04.308Z,24.10
2023-03-22T12:53:37.373Z,25.40
2023-03-22T12:56:04.371Z,24.80
2023-03-22T12:58:31.163Z,24.50
2023-03-22T13:01:12.466Z,24.40
2023-03-22T13:03:46.449Z,24.00
2023-03-22T13:06:30.654Z,23.80
2023-03-22T13:09:19.287Z,24.00
2023-03-22T13:11:49.043Z,24.80
2023-03-22T13:14:53.074Z,24.70
2023-03-22T13:17:22.621Z,24.10
2023-03-22T13:19:59.443Z,23.30
2023-03-22T13:22:29.285Z,23.60
2023-03-22T13:25:06.164Z,23.30
2023-03-22T13:27:54.917Z,22.60
2023-03-22T13:30:24.379Z,22.00
2023-03-22T13:33:11.450Z,21.80
2023-03-22T13:35:51.068Z,21.50
2023-03-22T13:38:34.421Z,21.10
2023-03-22T13:41:16.432Z,20.80
2023-03-22T13:43:43.242Z,20.60
2023-03-22T13:46:13.047Z,20.50
2023-03-22T13:48:41.574Z,20.60
2023-03-22T13:51:32.388Z,20.80
2023-03-22T13:54:16.392Z,20.70
2023-03-22T13:56:52.310Z,20.50
2023-03-22T13:59:29.662Z,20.30
2023-03-22T14:01:56.754Z,20.50
2023-03-22T14:04:38.292Z,20.60
2023-03-22T14:07:29.925Z,20.50
2023-03-22T14:10:01.519Z,20.50
2023-03-22T14:12:57.379Z,20.30
2023-03-22T14:15:28.480Z,20.10
2023-03-22T14:18:20.509Z,20.00
2023-03-22T14:20:51.630Z,20.00
